createdAt,value
2023-01-19T00:01:45.282Z,66.90
2023-01-19T00:04:13.709Z,64.50
2023-01-19T00:06:42.578Z,58.20
2023-01-19T00:09:10.768Z,50.70
2023-01-19T00:11:39.591Z,43.00
2023-01-19T00:14:08.024Z,52.47
2023-01-19T00:16:36.839Z,60.50
2023-01-19T00:19:05.239Z,68.32
2023-01-19T00:21:33.921Z,53.53
2023-01-19T00:24:02.244Z,58.60
2023-01-19T00:26:31.052Z,86.70
2023-01-19T00:28:59.509Z,81.35
2023-01-19T00:31:34.126Z,64.10
2023-01-19T00:34:03.566Z,47.25
2023-01-19T00:36:34.523Z,45.92
2023-01-19T00:39:02.825Z,49.75
2023-01-19T00:41:50.121Z,44.45
2023-01-19T00:44:18.459Z,45.53
2023-01-19T00:46:47.063Z,56.25
2023-01-19T00:49:15.330Z,51.55
2023-01-19T00:51:43.972Z,51.03
2023-01-19T00:54:12.237Z,52.33
2023-01-19T00:56:42.408Z,45.08
2023-01-19T00:59:11.221Z,44.70
2023-01-19T01:01:45.132Z,45.17
2023-01-19T01:04:14.656Z,41.50
2023-01-19T01:06:43.437Z,44.63
2023-01-19T01:09:14.349Z,43.80
2023-01-19T01:11:43.416Z,46.00
2023-01-19T01:14:13.229Z,51.35
2023-01-19T01:16:42.545Z,54.08
2023-01-19T01:19:10.904Z,62.35
2023-01-19T01:21:39.547Z,51.05
2023-01-19T01:24:33.271Z,50.75
2023-01-19T01:27:01.932Z,44.45
2023-01-19T01:29:30.231Z,56.88
2023-01-19T01:31:58.984Z,53.30
2023-01-19T01:34:27.513Z,46.78
2023-01-19T01:36:56.280Z,46.72
2023-01-19T01:39:24.839Z,44.47
2023-01-19T01:41:54.028Z,47.60
2023-01-19T01:44:53.266Z,44.78
2023-01-19T01:47:48.167Z,46.35
2023-01-19T01:50:22.416Z,47.08
2023-01-19T01:53:06.923Z,52.88
2023-01-19T01:55:49.335Z,54.60
2023-01-19T01:58:18.358Z,44.90
2023-01-19T02:01:05.079Z,44.63
2023-01-19T02:03:34.566Z,41.25
2023-01-19T02:06:07.338Z,42.88
2023-01-19T02:09:00.825Z,43.17
2023-01-19T02:11:49.473Z,41.92
2023-01-19T02:14:19.178Z,45.42
2023-01-19T02:16:47.801Z,44.50
2023-01-19T02:19:22.802Z,52.10
2023-01-19T02:22:24.362Z,50.65
2023-01-19T02:24:54.033Z,53.40
2023-01-19T02:27:22.452Z,67.45
2023-01-19T02:29:51.326Z,74.05
2023-01-19T02:32:19.591Z,69.15
2023-01-19T02:34:48.258Z,136.43
2023-01-19T02:37:17.732Z,85.75
2023-01-19T02:39:52.248Z,90.90
2023-01-19T02:42:32.411Z,75.10
2023-01-19T02:45:06.786Z,56.30
2023-01-19T02:47:46.005Z,56.30
2023-01-19T02:50:31.646Z,51.85
2023-01-19T02:53:26.842Z,51.55
2023-01-19T02:56:26.837Z,53.25
2023-01-19T02:59:30.856Z,56.05
2023-01-19T03:02:30.758Z,49.90
2023-01-19T03:05:25.348Z,54.13
2023-01-19T03:08:08.543Z,53.58
2023-01-19T03:14:48.404Z,58.40
2023-01-19T03:17:19.322Z,54.85
2023-01-19T03:19:50.774Z,56.42
2023-01-19T03:22:29.967Z,59.77
2023-01-19T03:25:01.909Z,63.42
2023-01-19T03:27:34.024Z,60.95
2023-01-19T03:30:09.592Z,61.25
2023-01-19T03:32:43.909Z,63.78
2023-01-19T03:35:16.287Z,67.05
2023-01-19T03:37:46.407Z,61.40
2023-01-19T03:40:15.203Z,61.15
2023-01-19T03:42:45.210Z,64.97
2023-01-19T03:45:15.335Z,64.38
2023-01-19T03:47:43.726Z,57.85
2023-01-19T03:50:21.093Z,54.75
2023-01-19T03:53:06.893Z,57.42
2023-01-19T03:55:37.716Z,49.80
2023-01-19T03:58:06.575Z,48.88
2023-01-19T04:00:36.822Z,51.53
2023-01-19T04:03:06.312Z,48.40
2023-01-19T04:05:34.895Z,46.03
2023-01-19T04:08:03.140Z,44.60
2023-01-19T04:10:32.204Z,47.50
2023-01-19T04:13:02.485Z,44.60
2023-01-19T04:15:32.331Z,50.15
2023-01-19T04:18:01.238Z,49.78
2023-01-19T04:20:30.162Z,52.38
2023-01-19T04:23:02.418Z,52.83
2023-01-19T04:25:31.092Z,52.28
2023-01-19T04:27:59.370Z,53.63
2023-01-19T04:30:28.102Z,68.18
2023-01-19T04:32:58.994Z,61.70
2023-01-19T04:35:28.074Z,61.63
2023-01-19T04:38:02.191Z,55.42
2023-01-19T04:40:32.300Z,54.08
2023-01-19T04:43:00.836Z,61.55
2023-01-19T04:45:31.016Z,52.38
2023-01-19T04:47:59.568Z,48.60
2023-01-19T04:50:31.338Z,57.97
2023-01-19T04:53:01.338Z,54.85
2023-01-19T04:55:31.681Z,53.22
2023-01-19T04:58:00.738Z,51.38
2023-01-19T05:00:32.738Z,59.90
2023-01-19T05:03:05.631Z,55.22
2023-01-19T05:05:35.170Z,52.67
2023-01-19T05:08:04.842Z,59.30
2023-01-19T05:10:42.814Z,53.10
2023-01-19T05:13:11.284Z,52.30
2023-01-19T05:15:39.882Z,59.45
2023-01-19T05:18:08.147Z,49.17
2023-01-19T05:20:36.706Z,51.10
2023-01-19T05:23:06.209Z,54.25
2023-01-19T05:25:35.888Z,51.50
2023-01-19T05:28:10.072Z,56.50
2023-01-19T05:30:38.923Z,53.30
2023-01-19T05:33:08.011Z,47.40
2023-01-19T05:35:36.713Z,54.53
2023-01-19T05:38:05.272Z,56.30
2023-01-19T05:40:33.974Z,53.42
2023-01-19T05:43:04.805Z,52.78
2023-01-19T05:45:41.170Z,50.40
2023-01-19T05:48:10.235Z,51.45
2023-01-19T05:50:39.128Z,52.25
2023-01-19T05:53:07.374Z,53.92
2023-01-19T05:55:36.031Z,54.92
2023-01-19T05:58:04.360Z,48.17
2023-01-19T06:00:33.026Z,54.65
2023-01-19T06:03:02.661Z,55.75
2023-01-19T06:05:32.112Z,61.28
2023-01-19T06:08:00.509Z,61.35
2023-01-19T06:10:29.328Z,61.17
2023-01-19T06:12:57.854Z,56.95
2023-01-19T06:15:26.720Z,51.63
2023-01-19T06:17:55.056Z,56.20
2023-01-19T06:20:24.757Z,59.13
2023-01-19T06:22:55.765Z,55.75
2023-01-19T06:25:25.687Z,63.72
2023-01-19T06:27:57.333Z,86.77
2023-01-19T06:30:29.309Z,147.52
2023-01-19T06:33:01.331Z,188.85
2023-01-19T06:35:33.073Z,225.85
2023-01-19T06:38:01.602Z,223.13
2023-01-19T06:41:04.837Z,246.15
2023-01-19T06:43:34.963Z,257.75
2023-01-19T06:46:06.087Z,228.27
2023-01-19T06:48:47.656Z,175.00
2023-01-19T06:51:24.440Z,210.75
2023-01-19T06:53:52.919Z,217.30
2023-01-19T06:56:24.104Z,202.48
2023-01-19T06:58:55.633Z,166.95
2023-01-19T07:01:24.352Z,157.80
2023-01-19T07:04:00.152Z,150.95
2023-01-19T07:06:29.270Z,125.32
2023-01-19T07:08:58.114Z,124.93
2023-01-19T07:12:25.916Z,124.10
2023-01-19T07:14:56.968Z,112.03
2023-01-19T07:17:25.979Z,99.30
2023-01-19T07:19:54.406Z,86.80
2023-01-19T07:22:27.607Z,89.18
2023-01-19T07:24:56.134Z,94.78
2023-01-19T07:27:28.467Z,89.30
2023-01-19T07:30:05.953Z,88.28
2023-01-19T07:32:49.962Z,90.00
2023-01-19T07:35:34.105Z,87.60
2023-01-19T07:38:33.633Z,90.85
2023-01-19T07:41:08.544Z,99.28
2023-01-19T07:47:14.655Z,96.18
2023-01-19T07:49:48.064Z,100.25
2023-01-19T07:52:17.096Z,93.95
2023-01-19T07:54:45.707Z,108.15
2023-01-19T07:57:14.440Z,136.32
2023-01-19T07:59:43.238Z,129.68
2023-01-19T08:02:16.343Z,139.25
2023-01-19T08:05:10.651Z,114.72
2023-01-19T08:07:41.288Z,103.93
2023-01-19T08:10:15.366Z,118.88
2023-01-19T08:12:44.155Z,119.90
2023-01-19T08:15:12.732Z,128.15
2023-01-19T08:17:48.071Z,125.30
2023-01-19T08:20:16.536Z,119.72
2023-01-19T08:22:47.684Z,165.95
2023-01-19T08:25:18.110Z,140.27
2023-01-19T08:27:49.484Z,103.25
2023-01-19T08:30:23.541Z,96.03
2023-01-19T08:33:04.595Z,90.47
2023-01-19T08:35:37.066Z,83.15
2023-01-19T08:38:14.533Z,85.15
2023-01-19T08:44:17.828Z,69.90
2023-01-19T08:47:35.809Z,66.78
2023-01-19T08:50:06.778Z,67.22
2023-01-19T08:52:43.048Z,67.50
2023-01-19T08:55:12.077Z,63.05
2023-01-19T08:57:41.351Z,68.13
2023-01-19T09:00:38.107Z,66.80
2023-01-19T09:03:56.736Z,64.00
2023-01-19T09:06:25.612Z,62.85
2023-01-19T09:08:53.998Z,59.67
2023-01-19T09:11:22.902Z,63.40
2023-01-19T09:13:51.615Z,63.70
2023-01-19T09:16:20.589Z,65.78
2023-01-19T09:18:48.965Z,75.63
2023-01-19T09:21:18.749Z,67.45
2023-01-19T09:23:47.151Z,78.65
2023-01-19T09:26:16.787Z,81.45
2023-01-19T09:28:45.058Z,86.95
2023-01-19T09:31:15.374Z,76.43
2023-01-19T09:33:43.978Z,77.85
2023-01-19T09:36:12.731Z,86.28
2023-01-19T09:38:41.256Z,100.32
2023-01-19T09:41:17.673Z,104.90
2023-01-19T09:43:56.056Z,118.82
2023-01-19T09:46:38.935Z,112.90
2023-01-19T09:49:39.680Z,100.22
2023-01-19T09:52:13.053Z,104.40
2023-01-19T09:54:55.272Z,98.40
2023-01-19T09:57:27.333Z,92.95
2023-01-19T09:59:59.826Z,91.85
2023-01-19T10:02:38.572Z,100.10
2023-01-19T10:05:33.858Z,98.15
2023-01-19T10:08:20.065Z,99.43
2023-01-19T10:11:12.843Z,101.07
2023-01-19T10:13:57.071Z,106.85
2023-01-19T10:17:38.962Z,121.68
2023-01-19T10:20:21.861Z,112.97
2023-01-19T10:23:07.139Z,112.93
2023-01-19T10:26:26.351Z,133.90
2023-01-19T10:28:41.185Z,116.03
2023-01-19T10:31:11.906Z,124.25
2023-01-19T10:33:40.591Z,116.90
2023-01-19T10:36:56.111Z,108.68
2023-01-19T10:39:32.164Z,112.00
2023-01-19T10:42:18.726Z,110.80
2023-01-19T10:45:32.486Z,108.95
2023-01-19T10:48:53.839Z,102.72
2023-01-19T10:51:37.196Z,107.57
2023-01-19T10:54:16.634Z,128.45
2023-01-19T10:57:04.263Z,146.70
2023-01-19T10:59:44.841Z,146.90
2023-01-19T11:02:30.608Z,147.02
2023-01-19T11:05:32.259Z,138.20
2023-01-19T11:08:00.893Z,128.38
2023-01-19T11:10:33.595Z,113.97
2023-01-19T11:13:20.282Z,99.97
2023-01-19T11:16:00.509Z,95.18
2023-01-19T11:18:40.375Z,84.63
2023-01-19T11:21:26.406Z,65.97
2023-01-19T11:24:05.763Z,60.50
2023-01-19T11:26:44.480Z,55.80
2023-01-19T11:29:25.368Z,54.28
2023-01-19T11:31:55.343Z,52.70
2023-01-19T11:34:36.854Z,57.95
2023-01-19T11:37:14.808Z,56.63
2023-01-19T11:39:53.215Z,56.10
2023-01-19T11:43:09.974Z,59.47
2023-01-19T11:45:50.310Z,52.90
2023-01-19T11:49:13.406Z,54.87
2023-01-19T11:52:34.377Z,56.67
2023-01-19T11:55:12.760Z,60.83
2023-01-19T11:58:12.802Z,76.13
2023-01-19T12:01:28.003Z,86.13
2023-01-19T12:04:28.312Z,68.75
2023-01-19T12:07:25.053Z,76.65
2023-01-19T12:10:00.849Z,75.25
2023-01-19T12:12:38.396Z,68.70
2023-01-19T12:15:36.483Z,66.97
2023-01-19T12:18:10.449Z,63.60
2023-01-19T12:20:49.474Z,66.72
2023-01-19T12:23:49.230Z,63.60
2023-01-19T12:26:32.925Z,67.80
2023-01-19T12:29:11.369Z,64.80
2023-01-19T12:31:43.532Z,66.95
2023-01-19T12:34:50.036Z,65.63
2023-01-19T12:37:30.778Z,62.30
2023-01-19T12:40:20.432Z,60.03
2023-01-19T12:43:03.955Z,59.20
2023-01-19T12:45:35.563Z,59.15
2023-01-19T12:48:05.338Z,55.00
2023-01-19T12:50:38.270Z,66.65
2023-01-19T12:53:20.670Z,59.00
2023-01-19T12:56:01.222Z,56.70
2023-01-19T12:58:29.974Z,55.75
2023-01-19T13:01:19.116Z,57.25
2023-01-19T13:04:41.214Z,53.35
2023-01-19T13:07:17.019Z,60.67
2023-01-19T13:10:29.784Z,53.50
2023-01-19T13:13:38.412Z,57.25
2023-01-19T13:16:18.882Z,53.90
2023-01-19T13:21:56.563Z,56.55
2023-01-19T13:27:15.195Z,63.17
2023-01-19T13:29:46.621Z,63.08
2023-01-19T13:32:18.974Z,68.00
2023-01-19T13:35:03.006Z,61.28
2023-01-19T13:37:43.811Z,71.78
2023-01-19T13:40:39.037Z,71.68
2023-01-19T13:43:31.956Z,74.30
2023-01-19T13:46:12.006Z,70.85
2023-01-19T13:49:00.221Z,73.43
2023-01-19T13:51:29.135Z,69.53
2023-01-19T13:54:01.850Z,78.93
2023-01-19T13:56:31.068Z,73.22
2023-01-19T13:59:10.505Z,75.15
2023-01-19T14:01:42.240Z,74.53
2023-01-19T14:04:47.927Z,71.68
2023-01-19T14:07:26.725Z,74.82
2023-01-19T14:10:06.767Z,71.82
2023-01-19T14:12:48.125Z,75.55
2023-01-19T14:15:25.335Z,78.45
2023-01-19T14:18:12.690Z,78.03
2023-01-19T14:20:41.771Z,78.55
2023-01-19T14:24:01.421Z,74.43
2023-01-19T14:27:44.654Z,69.68
2023-01-19T14:31:24.193Z,73.07
2023-01-19T14:38:00.070Z,69.45
2023-01-19T14:44:45.755Z,86.80
2023-01-19T14:47:32.537Z,93.57
2023-01-19T14:50:33.645Z,85.93
2023-01-19T14:57:13.859Z,74.57
2023-01-19T14:59:47.025Z,82.60
2023-01-19T15:02:20.444Z,100.03
2023-01-19T15:04:58.276Z,96.72
2023-01-19T15:07:31.614Z,102.72
2023-01-19T15:10:00.189Z,97.90
2023-01-19T15:12:30.152Z,85.05
2023-01-19T15:14:58.573Z,79.53
2023-01-19T15:17:28.428Z,77.38
2023-01-19T15:19:58.925Z,74.63
2023-01-19T15:22:30.114Z,77.47
2023-01-19T15:25:00.135Z,75.57
2023-01-19T15:27:28.754Z,69.20
2023-01-19T15:29:58.537Z,75.03
2023-01-19T15:32:27.130Z,77.10
2023-01-19T15:34:55.496Z,89.72
2023-01-19T15:37:28.940Z,91.47
2023-01-19T15:40:00.204Z,93.85
2023-01-19T15:42:31.371Z,112.45
2023-01-19T15:44:59.626Z,141.23
2023-01-19T15:47:28.166Z,142.80
2023-01-19T15:49:56.381Z,173.93
2023-01-19T15:52:32.795Z,191.45
2023-01-19T15:55:06.282Z,180.85
2023-01-19T15:57:38.251Z,263.70
2023-01-19T16:00:11.811Z,135.90
2023-01-19T16:02:43.381Z,110.43
2023-01-19T16:05:15.544Z,118.70
2023-01-19T16:07:46.532Z,111.63
2023-01-19T16:10:17.005Z,114.32
2023-01-19T16:13:17.390Z,119.40
2023-01-19T16:15:45.771Z,105.30
2023-01-19T16:18:16.063Z,109.93
2023-01-19T16:20:44.488Z,122.88
2023-01-19T16:23:15.348Z,111.07
2023-01-19T16:26:05.043Z,90.68
2023-01-19T16:28:37.798Z,93.00
2023-01-19T16:31:09.886Z,92.20
2023-01-19T16:33:38.448Z,97.55
2023-01-19T16:36:19.867Z,97.85
2023-01-19T16:38:53.953Z,89.32
2023-01-19T16:41:23.173Z,88.25
2023-01-19T16:43:57.784Z,82.00
2023-01-19T16:49:19.585Z,99.57
2023-01-19T16:51:51.622Z,111.03
2023-01-19T16:54:23.351Z,116.32
2023-01-19T16:56:52.582Z,133.90
2023-01-19T16:59:23.073Z,135.43
2023-01-19T17:02:16.916Z,126.90
2023-01-19T17:05:36.496Z,130.85
2023-01-19T17:08:12.766Z,97.88
2023-01-19T17:11:59.465Z,96.72
2023-01-19T17:14:28.091Z,129.77
2023-01-19T17:16:56.444Z,189.40
2023-01-19T17:19:35.674Z,218.60
2023-01-19T17:22:03.940Z,199.30
2023-01-19T17:24:35.330Z,183.25
2023-01-19T17:27:03.683Z,180.67
2023-01-19T17:29:32.307Z,143.73
2023-01-19T17:32:00.603Z,119.35
2023-01-19T17:34:33.963Z,108.43
2023-01-19T17:39:33.656Z,91.05
2023-01-19T17:42:02.089Z,100.95
2023-01-19T17:44:30.623Z,100.25
2023-01-19T17:47:00.036Z,102.80
2023-01-19T17:49:33.035Z,111.68
2023-01-19T17:52:04.766Z,103.57
2023-01-19T17:57:02.474Z,105.50
2023-01-19T17:59:32.705Z,113.20
2023-01-19T18:02:02.338Z,109.68
2023-01-19T18:04:58.568Z,114.90
2023-01-19T18:07:30.560Z,108.88
2023-01-19T18:10:24.380Z,91.63
2023-01-19T18:12:52.601Z,91.22
2023-01-19T18:15:24.294Z,99.80
2023-01-19T18:17:52.607Z,97.90
2023-01-19T18:20:31.668Z,99.65
2023-01-19T18:23:04.697Z,94.20
2023-01-19T18:25:33.624Z,91.78
2023-01-19T18:28:03.976Z,105.10
2023-01-19T18:30:35.076Z,101.75
2023-01-19T18:33:04.232Z,105.43
2023-01-19T18:35:47.233Z,117.35
2023-01-19T18:38:15.937Z,103.03
2023-01-19T18:40:44.814Z,118.55
2023-01-19T18:43:16.098Z,95.93
2023-01-19T18:45:48.217Z,98.88
2023-01-19T18:48:18.032Z,95.68
2023-01-19T18:50:46.789Z,95.93
2023-01-19T18:53:40.789Z,90.88
2023-01-19T18:56:13.130Z,84.18
2023-01-19T19:01:27.390Z,83.30
2023-01-19T19:03:56.774Z,84.18
2023-01-19T19:06:29.874Z,71.95
2023-01-19T19:09:09.888Z,76.22
2023-01-19T19:11:38.680Z,64.13
2023-01-19T19:14:09.929Z,57.80
2023-01-19T19:16:47.930Z,46.58
2023-01-19T19:19:19.292Z,48.75
2023-01-19T19:22:41.906Z,53.95
2023-01-19T19:25:10.247Z,53.20
2023-01-19T19:27:39.271Z,51.33
2023-01-19T19:30:09.464Z,46.90
2023-01-19T19:32:38.435Z,41.83
2023-01-19T19:35:06.993Z,44.13
2023-01-19T19:37:37.213Z,47.25
2023-01-19T19:40:05.872Z,45.75
2023-01-19T19:42:42.312Z,49.10
2023-01-19T19:45:11.547Z,49.67
2023-01-19T19:47:40.345Z,40.35
2023-01-19T19:51:17.399Z,50.90
2023-01-19T19:53:49.049Z,42.78
2023-01-19T19:56:21.737Z,44.20
2023-01-19T19:58:51.759Z,44.03
2023-01-19T20:01:34.755Z,44.80
2023-01-19T20:04:08.917Z,43.60
2023-01-19T20:06:40.479Z,44.08
2023-01-19T20:09:16.091Z,46.45
2023-01-19T20:11:46.837Z,45.15
2023-01-19T20:14:17.061Z,41.83
2023-01-19T20:16:45.680Z,43.15
2023-01-19T20:19:14.634Z,41.40
2023-01-19T20:21:43.346Z,46.92
2023-01-19T20:24:16.469Z,47.35
2023-01-19T20:26:50.410Z,45.55
2023-01-19T20:32:29.057Z,41.40
2023-01-19T20:35:00.520Z,35.50
2023-01-19T20:37:30.041Z,36.80
2023-01-19T20:39:58.692Z,31.30
2023-01-19T20:43:08.207Z,29.25
2023-01-19T20:45:36.825Z,27.52
2023-01-19T20:48:05.392Z,31.08
2023-01-19T20:50:35.018Z,33.25
2023-01-19T20:53:10.303Z,28.80
2023-01-19T20:55:38.987Z,30.67
2023-01-19T20:58:07.358Z,34.88
2023-01-19T21:00:35.997Z,30.73
2023-01-19T21:03:11.718Z,25.33
2023-01-19T21:05:40.529Z,28.45
2023-01-19T21:08:09.141Z,29.60
2023-01-19T21:10:37.737Z,31.70
2023-01-19T21:13:07.361Z,31.25
2023-01-19T21:15:43.450Z,24.35
2023-01-19T21:18:38.235Z,23.30
2023-01-19T21:21:10.689Z,26.88
2023-01-19T21:23:47.631Z,27.35
2023-01-19T21:26:16.491Z,30.63
2023-01-19T21:28:45.432Z,29.20
2023-01-19T21:31:14.597Z,28.55
2023-01-19T21:33:46.896Z,33.67
2023-01-19T21:36:16.841Z,34.25
2023-01-19T21:38:46.254Z,32.70
2023-01-19T21:41:16.473Z,35.13
2023-01-19T21:43:52.334Z,36.90
2023-01-19T21:46:28.988Z,36.03
2023-01-19T21:49:07.315Z,40.08
2023-01-19T21:51:37.315Z,34.35
2023-01-19T21:54:06.934Z,38.25
2023-01-19T21:56:36.029Z,34.40
2023-01-19T21:59:05.088Z,31.95
2023-01-19T22:01:34.741Z,32.17
2023-01-19T22:04:03.551Z,35.28
2023-01-19T22:06:31.841Z,31.95
2023-01-19T22:09:00.848Z,31.50
2023-01-19T22:11:30.274Z,35.63
2023-01-19T22:13:59.870Z,36.42
2023-01-19T22:16:29.272Z,33.92
2023-01-19T22:19:02.487Z,37.10
2023-01-19T22:21:34.208Z,38.60
2023-01-19T22:24:17.187Z,41.13
2023-01-19T22:26:45.519Z,37.55
2023-01-19T22:29:14.449Z,39.45
2023-01-19T22:31:43.281Z,39.67
2023-01-19T22:34:11.989Z,41.67
2023-01-19T22:36:40.512Z,41.60
2023-01-19T22:39:13.825Z,38.28
2023-01-19T22:41:44.966Z,39.80
2023-01-19T22:44:15.939Z,38.22
2023-01-19T22:46:47.847Z,43.33
2023-01-19T22:54:25.823Z,36.38
2023-01-19T22:56:54.190Z,46.75
2023-01-19T22:59:23.061Z,32.90
2023-01-19T23:01:53.670Z,35.92
2023-01-19T23:04:22.515Z,41.40
2023-01-19T23:06:51.886Z,37.55
2023-01-19T23:09:31.930Z,43.50
2023-01-19T23:12:00.567Z,46.28
2023-01-19T23:14:29.571Z,43.25
2023-01-19T23:17:00.803Z,42.83
2023-01-19T23:19:29.944Z,51.55
2023-01-19T23:21:58.155Z,46.58
2023-01-19T23:24:26.808Z,52.17
2023-01-19T23:26:56.260Z,49.70
2023-01-19T23:29:25.167Z,46.63
2023-01-19T23:31:53.751Z,48.40
2023-01-19T23:34:22.665Z,46.88
2023-01-19T23:36:51.148Z,47.35
2023-01-19T23:39:24.711Z,47.65
2023-01-19T23:41:53.113Z,46.58
2023-01-19T23:44:21.938Z,46.05
2023-01-19T23:46:54.043Z,39.15
2023-01-19T23:49:22.684Z,41.40
2023-01-19T23:51:51.029Z,44.50
2023-01-19T23:54:19.621Z,38.53
2023-01-19T23:56:47.831Z,40.25
2023-01-19T23:59:16.704Z,40.45
